Time;durP1;ratioP1;P1;durP2;ratioP2;P2;SDS_P1;SDS_P2;PMS_P1;PMS_P2;Temp;Humidity;BMP_temperature;BMP_pressure;BME280_temperature;BME280_humidity;BME280_pressure;Samples;Min_cycle;Max_cycle;Signal;HPM_P1;HPM_P2
2023/03/28 00:00:40;;;;;;;3.63;3.42;;;;;;;;;;5008863;28;20196;-82
2023/03/28 00:03:06;;;;;;;4.20;2.92;;;;;;;;;;5011805;28;20274;-82
2023/03/28 00:05:32;;;;;;;4.85;3.20;;;;;;;;;;5013509;28;20215;-80
2023/03/28 00:07:58;;;;;;;3.50;3.20;;;;;;;;;;5018564;28;20565;-82
2023/03/28 00:10:25;;;;;;;8.13;2.90;;;;;;;;;;5018257;28;20189;-82
2023/03/28 00:12:51;;;;;;;3.90;3.60;;;;;;;;;;5011784;28;20211;-81
2023/03/28 00:15:17;;;;;;;6.53;3.60;;;;;;;;;;5014823;28;20204;-82
2023/03/28 00:17:43;;;;;;;3.13;3.00;;;;;;;;;;5017786;28;20583;-83
2023/03/28 00:20:09;;;;;;;7.20;3.97;;;;;;;;;;5019735;28;20450;-81
2023/03/28 00:22:37;;;;;;;6.78;3.85;;;;;;;;;;5008684;28;20782;-82
2023/03/28 00:25:05;;;;;;;8.30;4.03;;;;;;;;;;5018559;28;20257;-82
2023/03/28 00:27:32;;;;;;;5.63;4.30;;;;;;;;;;5012752;28;20180;-83
2023/03/28 00:29:58;;;;;;;11.43;3.50;;;;;;;;;;5026377;28;20183;-82
2023/03/28 00:32:24;;;;;;;4.03;3.38;;;;;;;;;;5009349;28;20647;-82
2023/03/28 00:34:50;;;;;;;7.35;3.05;;;;;;;;;;5018927;28;20243;-83
2023/03/28 00:37:16;;;;;;;5.57;4.10;;;;;;;;;;5015481;28;20224;-83
2023/03/28 00:39:48;;;;;;;4.07;3.28;;;;;;;;;;5024110;28;20264;-83
2023/03/28 00:42:15;;;;;;;7.93;4.43;;;;;;;;;;5016424;28;20608;-83
2023/03/28 00:44:41;;;;;;;6.07;3.85;;;;;;;;;;5026904;28;20195;-83
2023/03/28 00:47:16;;;;;;;8.85;5.22;;;;;;;;;;5030685;28;20220;-84
2023/03/28 00:49:43;;;;;;;5.97;4.55;;;;;;;;;;5030779;28;20233;-83
2023/03/28 00:52:12;;;;;;;4.40;3.60;;;;;;;;;;5020235;28;20699;-82
2023/03/28 00:54:39;;;;;;;6.53;3.95;;;;;;;;;;5009595;28;20181;-81
2023/03/28 00:57:07;;;;;;;4.78;2.75;;;;;;;;;;5015011;28;20208;-82
2023/03/28 00:59:34;;;;;;;3.92;3.67;;;;;;;;;;5020583;28;20196;-84
2023/03/28 01:02:00;;;;;;;4.38;3.40;;;;;;;;;;5030686;28;20184;-84
2023/03/28 01:04:35;;;;;;;3.90;3.58;;;;;;;;;;5027191;28;20193;-83
2023/03/28 01:07:01;;;;;;;10.50;4.30;;;;;;;;;;5022492;28;20616;-84
2023/03/28 01:09:27;;;;;;;9.25;4.53;;;;;;;;;;5017470;28;20184;-82
2023/03/28 01:11:54;;;;;;;3.55;3.30;;;;;;;;;;4989757;28;20203;-81
2023/03/28 01:14:22;;;;;;;3.65;3.10;;;;;;;;;;5027861;28;20211;-81
2023/03/28 01:16:48;;;;;;;3.67;3.42;;;;;;;;;;5009090;28;20557;-82
2023/03/28 01:19:43;;;;;;;4.43;3.03;;;;;;;;;;5008861;28;20195;-82
2023/03/28 01:22:15;;;;;;;3.20;3.10;;;;;;;;;;5010057;28;20215;-82
2023/03/28 01:25:04;;;;;;;3.58;3.15;;;;;;;;;;5026878;28;20800;-82
2023/03/28 01:27:43;;;;;;;5.97;2.72;;;;;;;;;;5027257;28;20669;-84
2023/03/28 01:30:15;;;;;;;2.83;2.72;;;;;;;;;;5022824;28;20577;-83
2023/03/28 01:32:41;;;;;;;10.98;3.97;;;;;;;;;;4990667;28;20741;-83
2023/03/28 01:35:10;;;;;;;4.43;3.35;;;;;;;;;;5022954;28;20224;-83
2023/03/28 01:37:41;;;;;;;5.13;3.88;;;;;;;;;;5013694;28;20685;-83
2023/03/28 01:40:25;;;;;;;6.53;3.85;;;;;;;;;;5017154;28;20576;-83
2023/03/28 01:42:51;;;;;;;3.92;3.63;;;;;;;;;;5012871;28;20197;-82
2023/03/28 01:45:40;;;;;;;3.88;2.78;;;;;;;;;;5027314;28;20585;-82
2023/03/28 01:48:16;;;;;;;4.75;3.50;;;;;;;;;;4988559;28;20585;-81
2023/03/28 01:50:47;;;;;;;3.55;3.35;;;;;;;;;;5015981;28;20570;-82
2023/03/28 01:53:29;;;;;;;3.75;3.45;;;;;;;;;;5017361;28;20638;-81
2023/03/28 01:56:04;;;;;;;5.43;4.05;;;;;;;;;;5014724;28;20192;-83
2023/03/28 01:58:43;;;;;;;3.85;3.55;;;;;;;;;;4997607;28;20676;-81
2023/03/28 02:01:12;;;;;;;4.88;3.10;;;;;;;;;;5014381;28;20615;-81
2023/03/28 02:03:41;;;;;;;3.92;2.97;;;;;;;;;;5016998;28;20177;-81
2023/03/28 02:06:09;;;;;;;8.20;3.90;;;;;;;;;;4997556;28;20540;-80
2023/03/28 02:08:36;;;;;;;4.82;3.63;;;;;;;;;;5021143;28;20172;-82
2023/03/28 02:11:03;;;;;;;6.65;3.58;;;;;;;;;;5020452;28;20938;-82
2023/03/28 02:13:32;;;;;;;9.18;4.00;;;;;;;;;;5015967;28;20206;-82
2023/03/28 02:15:59;;;;;;;7.68;4.53;;;;;;;;;;5008785;28;20665;-82
2023/03/28 02:18:29;;;;;;;4.15;3.80;;;;;;;;;;5020258;28;20215;-81
2023/03/28 02:20:58;;;;;;;5.85;4.15;;;;;;;;;;5019023;28;20508;-81
2023/03/28 02:23:34;;;;;;;9.23;4.40;;;;;;;;;;5010827;28;20566;-81
2023/03/28 02:26:00;;;;;;;7.65;4.03;;;;;;;;;;5019248;28;20577;-80
2023/03/28 02:28:27;;;;;;;20.97;5.33;;;;;;;;;;5018027;28;20282;-81
2023/03/28 02:30:54;;;;;;;6.25;4.05;;;;;;;;;;5010948;28;20451;-80
2023/03/28 02:33:39;;;;;;;10.18;3.80;;;;;;;;;;5020547;28;20275;-81
2023/03/28 02:36:05;;;;;;;6.32;3.75;;;;;;;;;;5024934;28;20776;-80
2023/03/28 02:38:50;;;;;;;6.28;4.38;;;;;;;;;;5014596;28;20235;-80
2023/03/28 02:41:28;;;;;;;2.85;2.83;;;;;;;;;;5007787;28;20235;-81
2023/03/28 02:43:54;;;;;;;3.80;3.60;;;;;;;;;;5020335;28;20190;-79
2023/03/28 02:46:33;;;;;;;6.47;4.03;;;;;;;;;;5016323;28;20200;-80
2023/03/28 02:48:59;;;;;;;6.15;3.40;;;;;;;;;;5047509;28;20461;-80
2023/03/28 02:51:33;;;;;;;6.43;3.50;;;;;;;;;;5021948;28;20226;-82
2023/03/28 02:54:02;;;;;;;6.35;4.40;;;;;;;;;;5019852;28;20485;-81
2023/03/28 02:56:35;;;;;;;5.07;4.40;;;;;;;;;;5007316;28;20197;-81
2023/03/28 02:59:04;;;;;;;6.95;4.20;;;;;;;;;;5014907;28;20204;-82
2023/03/28 03:01:30;;;;;;;3.83;3.53;;;;;;;;;;5018920;28;20459;-79
2023/03/28 03:03:57;;;;;;;3.30;3.10;;;;;;;;;;5012534;28;20854;-82
2023/03/28 03:06:25;;;;;;;5.47;4.10;;;;;;;;;;5010404;28;20198;-80
2023/03/28 03:08:51;;;;;;;5.47;4.60;;;;;;;;;;5020867;28;20546;-80
2023/03/28 03:11:17;;;;;;;7.47;3.80;;;;;;;;;;5008784;28;20205;-82
2023/03/28 03:13:43;;;;;;;5.53;4.77;;;;;;;;;;5017241;28;20393;-80
2023/03/28 03:16:09;;;;;;;5.93;4.35;;;;;;;;;;5005999;28;20468;-81
2023/03/28 03:18:35;;;;;;;4.43;4.03;;;;;;;;;;5021519;28;20228;-80
2023/03/28 03:21:02;;;;;;;5.22;4.45;;;;;;;;;;5016834;28;20759;-80
2023/03/28 03:23:28;;;;;;;4.13;3.83;;;;;;;;;;5001718;28;20569;-81
2023/03/28 03:25:54;;;;;;;3.92;3.63;;;;;;;;;;5009352;28;20758;-80
2023/03/28 03:28:20;;;;;;;4.32;3.95;;;;;;;;;;5010834;28;20184;-80
2023/03/28 03:30:46;;;;;;;7.63;5.35;;;;;;;;;;5019038;28;20263;-80
2023/03/28 03:33:13;;;;;;;6.20;4.60;;;;;;;;;;5016481;28;20181;-81
2023/03/28 03:35:40;;;;;;;5.28;4.70;;;;;;;;;;5019674;28;20496;-77
2023/03/28 03:38:07;;;;;;;6.25;4.50;;;;;;;;;;4992298;28;20335;-80
2023/03/28 03:40:33;;;;;;;4.93;4.53;;;;;;;;;;5002731;28;20171;-79
2023/03/28 03:42:59;;;;;;;6.78;5.15;;;;;;;;;;5009962;28;20187;-80
2023/03/28 03:45:25;;;;;;;5.50;5.10;;;;;;;;;;5021220;28;20637;-82
2023/03/28 03:47:51;;;;;;;6.55;4.90;;;;;;;;;;5015726;28;20575;-81
2023/03/28 03:50:17;;;;;;;8.52;5.43;;;;;;;;;;5013800;28;20234;-81
2023/03/28 03:52:43;;;;;;;5.78;3.92;;;;;;;;;;5014931;28;20197;-80
2023/03/28 03:55:10;;;;;;;7.80;5.30;;;;;;;;;;5011852;28;20191;-80
2023/03/28 03:57:36;;;;;;;9.65;5.50;;;;;;;;;;5015658;28;20698;-79
2023/03/28 04:00:10;;;;;;;11.47;5.00;;;;;;;;;;5014186;28;20242;-81
2023/03/28 04:02:37;;;;;;;7.00;4.03;;;;;;;;;;5016884;28;20446;-80
2023/03/28 04:05:03;;;;;;;4.65;4.25;;;;;;;;;;5025865;28;20274;-81
2023/03/28 04:07:29;;;;;;;6.45;4.50;;;;;;;;;;5015277;28;20193;-76
2023/03/28 04:09:55;;;;;;;14.23;5.70;;;;;;;;;;5020827;28;20538;-81
2023/03/28 04:12:21;;;;;;;6.72;4.22;;;;;;;;;;5010326;28;20280;-81
2023/03/28 04:14:47;;;;;;;6.47;5.45;;;;;;;;;;5023922;28;20208;-80
2023/03/28 04:17:14;;;;;;;11.07;5.45;;;;;;;;;;5018669;28;20203;-80
2023/03/28 04:19:41;;;;;;;10.82;5.93;;;;;;;;;;5017061;28;20188;-81
2023/03/28 04:22:07;;;;;;;7.65;6.22;;;;;;;;;;5023408;28;20758;-75
2023/03/28 04:24:36;;;;;;;15.10;6.20;;;;;;;;;;5025419;28;20202;-78
2023/03/28 04:27:02;;;;;;;6.20;5.60;;;;;;;;;;5033946;28;20192;-79
2023/03/28 04:29:31;;;;;;;3.78;3.47;;;;;;;;;;5034380;28;20197;-80
2023/03/28 04:31:57;;;;;;;6.57;4.50;;;;;;;;;;5021530;28;20439;-80
2023/03/28 04:34:28;;;;;;;11.05;5.07;;;;;;;;;;5019936;28;20449;-81
2023/03/28 04:36:55;;;;;;;12.73;5.60;;;;;;;;;;5008716;28;20188;-79
2023/03/28 04:39:21;;;;;;;7.93;5.20;;;;;;;;;;5008224;28;20184;-81
2023/03/28 04:41:47;;;;;;;9.55;5.63;;;;;;;;;;5004085;28;20191;-79
2023/03/28 04:44:13;;;;;;;11.93;5.40;;;;;;;;;;5027221;28;20183;-80
2023/03/28 04:46:39;;;;;;;6.18;5.55;;;;;;;;;;5013283;28;20444;-80
2023/03/28 04:49:05;;;;;;;6.73;5.53;;;;;;;;;;5022761;28;20209;-79
2023/03/28 04:51:31;;;;;;;8.23;5.83;;;;;;;;;;5017065;28;20449;-79
2023/03/28 04:53:57;;;;;;;6.73;5.77;;;;;;;;;;5002494;28;20994;-79
2023/03/28 04:56:23;;;;;;;10.40;6.43;;;;;;;;;;5036497;28;21137;-80
2023/03/28 04:58:49;;;;;;;8.53;6.47;;;;;;;;;;5030576;28;20451;-78
2023/03/28 05:01:15;;;;;;;7.45;4.65;;;;;;;;;;5013411;28;20443;-80
2023/03/28 05:03:41;;;;;;;12.63;5.90;;;;;;;;;;5026650;28;20199;-79
2023/03/28 05:06:07;;;;;;;9.43;7.00;;;;;;;;;;5014588;28;20443;-81
2023/03/28 05:08:33;;;;;;;11.38;7.07;;;;;;;;;;5020345;28;20417;-81
2023/03/28 05:10:59;;;;;;;7.40;6.80;;;;;;;;;;5014959;28;20330;-80
2023/03/28 05:13:25;;;;;;;12.10;7.90;;;;;;;;;;5017903;28;20436;-80
2023/03/28 05:15:51;;;;;;;6.90;6.27;;;;;;;;;;5020069;28;21035;-80
2023/03/28 05:18:17;;;;;;;5.20;4.68;;;;;;;;;;4994987;28;20448;-79
2023/03/28 05:20:43;;;;;;;15.20;7.40;;;;;;;;;;5016628;28;20212;-80
2023/03/28 05:23:09;;;;;;;8.30;7.18;;;;;;;;;;5013465;28;20207;-82
2023/03/28 05:25:35;;;;;;;7.65;6.95;;;;;;;;;;5026157;28;20179;-81
2023/03/28 05:28:02;;;;;;;12.43;7.90;;;;;;;;;;5017288;28;20180;-79
2023/03/28 05:30:28;;;;;;;8.63;7.78;;;;;;;;;;4985850;28;20688;-80
2023/03/28 05:32:54;;;;;;;8.07;5.90;;;;;;;;;;5017151;28;20205;-80
2023/03/28 05:35:20;;;;;;;11.50;6.40;;;;;;;;;;5014159;28;20418;-80
2023/03/28 05:37:46;;;;;;;6.43;5.82;;;;;;;;;;5011853;28;20303;-81
2023/03/28 05:40:13;;;;;;;6.15;5.55;;;;;;;;;;5009883;28;20229;-79
2023/03/28 05:42:39;;;;;;;10.73;6.85;;;;;;;;;;5015370;28;20261;-79
2023/03/28 05:45:05;;;;;;;9.90;6.43;;;;;;;;;;5016804;28;20261;-80
2023/03/28 05:47:31;;;;;;;9.15;7.00;;;;;;;;;;5018073;28;20205;-82
2023/03/28 05:49:58;;;;;;;10.63;6.72;;;;;;;;;;5018694;28;20568;-80
2023/03/28 05:52:24;;;;;;;9.07;7.75;;;;;;;;;;5018794;28;20202;-83
2023/03/28 05:54:50;;;;;;;9.30;7.22;;;;;;;;;;5011887;28;20189;-79
2023/03/28 05:57:16;;;;;;;8.50;5.43;;;;;;;;;;5011859;28;20661;-82
2023/03/28 05:59:42;;;;;;;9.90;7.65;;;;;;;;;;5016251;28;20228;-82
2023/03/28 06:02:11;;;;;;;8.73;7.82;;;;;;;;;;5015072;28;20332;-79
2023/03/28 06:04:38;;;;;;;9.27;7.25;;;;;;;;;;4996266;28;20421;-81
2023/03/28 06:07:05;;;;;;;9.98;8.98;;;;;;;;;;5011066;28;20207;-81
2023/03/28 06:09:31;;;;;;;8.38;7.47;;;;;;;;;;5012844;28;20357;-81
2023/03/28 06:12:06;;;;;;;12.32;7.30;;;;;;;;;;5026196;28;20235;-82
2023/03/28 06:14:32;;;;;;;10.73;7.25;;;;;;;;;;5021448;28;20380;-80
2023/03/28 06:16:58;;;;;;;11.13;6.78;;;;;;;;;;5020719;28;20183;-81
2023/03/28 06:19:25;;;;;;;6.80;6.20;;;;;;;;;;5016169;28;20219;-81
2023/03/28 06:21:54;;;;;;;11.77;6.97;;;;;;;;;;5016434;28;20491;-78
2023/03/28 06:24:20;;;;;;;5.40;5.07;;;;;;;;;;5008479;28;20424;-82
2023/03/28 06:26:46;;;;;;;6.30;5.47;;;;;;;;;;5024584;28;20423;-81
2023/03/28 06:29:12;;;;;;;4.87;4.60;;;;;;;;;;5011655;28;20956;-81
2023/03/28 06:31:38;;;;;;;5.37;4.90;;;;;;;;;;5025587;28;21078;-81
2023/03/28 06:34:04;;;;;;;7.17;6.43;;;;;;;;;;5010608;28;20446;-81
2023/03/28 06:36:30;;;;;;;5.20;4.80;;;;;;;;;;5022082;28;20434;-81
2023/03/28 06:38:57;;;;;;;5.80;5.40;;;;;;;;;;4993371;28;20608;-83
2023/03/28 06:41:23;;;;;;;11.13;5.27;;;;;;;;;;5024054;28;20997;-79
2023/03/28 06:43:52;;;;;;;5.30;4.80;;;;;;;;;;5001987;28;20458;-82
2023/03/28 06:46:19;;;;;;;13.20;6.73;;;;;;;;;;5022014;28;20450;-82
2023/03/28 06:48:45;;;;;;;5.33;4.83;;;;;;;;;;5017309;28;20511;-82
2023/03/28 06:51:12;;;;;;;4.83;4.37;;;;;;;;;;5018959;28;20418;-83
2023/03/28 06:53:38;;;;;;;5.03;4.63;;;;;;;;;;5015717;28;20469;-82
2023/03/28 06:56:05;;;;;;;5.40;4.90;;;;;;;;;;5025633;28;20967;-81
2023/03/28 06:58:31;;;;;;;4.97;4.60;;;;;;;;;;5022242;28;21001;-83
2023/03/28 07:01:00;;;;;;;10.33;5.17;;;;;;;;;;5019527;28;20898;-82
2023/03/28 07:03:28;;;;;;;5.50;5.10;;;;;;;;;;5013651;28;20497;-79
2023/03/28 07:05:54;;;;;;;7.50;5.53;;;;;;;;;;5018702;28;20532;-81
2023/03/28 07:08:21;;;;;;;9.53;5.07;;;;;;;;;;5027861;28;20477;-83
2023/03/28 07:10:47;;;;;;;6.53;5.93;;;;;;;;;;5038284;28;20609;-82
2023/03/28 07:13:13;;;;;;;5.00;4.53;;;;;;;;;;5021650;28;20430;-81
2023/03/28 07:15:39;;;;;;;9.40;5.07;;;;;;;;;;5022151;28;20426;-81
2023/03/28 07:18:09;;;;;;;10.60;5.07;;;;;;;;;;5021940;28;20482;-80
2023/03/28 07:20:37;;;;;;;5.63;5.23;;;;;;;;;;5008976;28;20502;-81
2023/03/28 07:23:03;;;;;;;4.80;4.37;;;;;;;;;;5013369;28;20442;-81
2023/03/28 07:25:29;;;;;;;5.80;5.30;;;;;;;;;;5014225;28;20406;-81
2023/03/28 07:27:55;;;;;;;5.10;4.70;;;;;;;;;;5014939;28;20416;-80
2023/03/28 07:30:21;;;;;;;8.07;5.47;;;;;;;;;;5018048;28;20890;-79
2023/03/28 07:32:47;;;;;;;4.90;4.57;;;;;;;;;;5018665;28;20535;-79
2023/03/28 07:35:13;;;;;;;5.30;4.80;;;;;;;;;;5019783;28;20414;-82
2023/03/28 07:37:39;;;;;;;11.90;6.80;;;;;;;;;;5024188;28;20470;-80
2023/03/28 07:40:05;;;;;;;8.17;6.00;;;;;;;;;;5030238;28;20406;-80
2023/03/28 07:42:32;;;;;;;12.40;11.53;;;;;;;;;;4997175;28;20771;-80
2023/03/28 07:44:58;;;;;;;4.93;4.63;;;;;;;;;;5020419;28;20922;-81
2023/03/28 07:47:24;;;;;;;6.40;6.07;;;;;;;;;;5012749;28;20439;-79
2023/03/28 07:49:50;;;;;;;3.97;3.70;;;;;;;;;;5019605;28;20531;-80
2023/03/28 07:52:16;;;;;;;5.77;5.47;;;;;;;;;;5019762;28;20686;-80
2023/03/28 07:54:42;;;;;;;5.70;4.67;;;;;;;;;;5020798;28;20404;-80
2023/03/28 07:57:08;;;;;;;5.53;4.50;;;;;;;;;;5014134;28;20433;-79
2023/03/28 07:59:34;;;;;;;3.67;3.47;;;;;;;;;;4999757;28;20445;-81
2023/03/28 08:02:03;;;;;;;4.67;4.23;;;;;;;;;;5021016;28;20418;-79
2023/03/28 08:04:30;;;;;;;4.80;4.50;;;;;;;;;;5022504;28;20439;-81
2023/03/28 08:06:56;;;;;;;8.60;4.27;;;;;;;;;;5022996;28;20510;-83
2023/03/28 08:09:22;;;;;;;4.20;3.80;;;;;;;;;;5017506;28;20451;-83
2023/03/28 08:11:49;;;;;;;4.90;4.57;;;;;;;;;;5024504;28;20868;-83
2023/03/28 08:14:16;;;;;;;7.20;4.43;;;;;;;;;;5022569;28;20455;-82
2023/03/28 08:16:43;;;;;;;5.67;4.17;;;;;;;;;;5004868;28;20541;-82
2023/03/28 08:19:09;;;;;;;7.63;3.77;;;;;;;;;;5021409;28;20493;-81
2023/03/28 08:21:36;;;;;;;4.43;4.10;;;;;;;;;;5016631;28;20446;-81
2023/03/28 08:24:02;;;;;;;4.77;4.10;;;;;;;;;;5015066;28;20435;-76
2023/03/28 08:26:29;;;;;;;5.10;4.53;;;;;;;;;;5023230;28;20913;-83
2023/03/28 08:28:57;;;;;;;5.90;4.40;;;;;;;;;;5018111;28;20495;-83
2023/03/28 08:31:25;;;;;;;5.90;3.90;;;;;;;;;;5011864;28;20452;-85
2023/03/28 08:33:52;;;;;;;4.27;3.77;;;;;;;;;;5022410;28;20446;-84
2023/03/28 08:36:18;;;;;;;4.33;3.90;;;;;;;;;;5015742;28;20701;-84
2023/03/28 08:38:45;;;;;;;7.50;3.67;;;;;;;;;;5020617;28;20465;-82
2023/03/28 08:41:11;;;;;;;5.10;4.70;;;;;;;;;;5016890;28;20542;-81
2023/03/28 08:43:59;;;;;;;4.53;4.20;;;;;;;;;;5028918;28;20434;-82
2023/03/28 08:46:27;;;;;;;6.37;3.93;;;;;;;;;;5016074;28;20474;-84
2023/03/28 08:48:54;;;;;;;4.77;4.33;;;;;;;;;;5020198;28;20569;-85
2023/03/28 08:51:31;;;;;;;6.13;3.40;;;;;;;;;;5022845;28;20434;-84
2023/03/28 08:54:11;;;;;;;3.57;3.20;;;;;;;;;;5023922;28;20457;-81
2023/03/28 08:56:42;;;;;;;3.80;3.50;;;;;;;;;;5021584;28;20492;-81
2023/03/28 08:59:11;;;;;;;3.90;3.57;;;;;;;;;;5030298;28;20466;-80
2023/03/28 09:01:38;;;;;;;7.20;3.93;;;;;;;;;;5017290;28;20916;-82
2023/03/28 09:04:04;;;;;;;5.93;3.10;;;;;;;;;;5016077;28;20499;-83
2023/03/28 09:06:39;;;;;;;4.47;3.00;;;;;;;;;;5020910;28;20998;-83
2023/03/28 09:09:24;;;;;;;3.93;3.43;;;;;;;;;;5026003;28;20430;-82
2023/03/28 09:12:02;;;;;;;4.10;3.80;;;;;;;;;;5017114;28;20932;-83
2023/03/28 09:14:28;;;;;;;4.27;3.80;;;;;;;;;;5026346;28;20442;-86
2023/03/28 09:16:56;;;;;;;5.67;4.10;;;;;;;;;;5040859;28;20427;-87
2023/03/28 09:19:42;;;;;;;9.37;4.33;;;;;;;;;;5043331;28;20427;-88
2023/03/28 09:22:09;;;;;;;3.37;3.10;;;;;;;;;;5038367;28;20446;-81
2023/03/28 09:24:41;;;;;;;2.57;2.53;;;;;;;;;;5048940;28;20416;-83
2023/03/28 09:27:13;;;;;;;3.43;3.13;;;;;;;;;;5049279;28;20450;-85
2023/03/28 09:29:42;;;;;;;3.37;3.03;;;;;;;;;;5052192;28;20446;-84
2023/03/28 09:32:22;;;;;;;6.50;4.43;;;;;;;;;;5043943;28;20411;-86
2023/03/28 09:37:24;;;;;;;7.40;3.70;;;;;;;;;;5063929;23;20453;-86
2023/03/28 09:39:59;;;;;;;4.10;3.43;;;;;;;;;;5071817;28;20457;-84
2023/03/28 09:45:26;;;;;;;3.60;2.70;;;;;;;;;;5678919;23;20513;-84
2023/03/28 09:47:52;;;;;;;5.83;4.57;;;;;;;;;;5491927;23;20450;-81
2023/03/28 09:50:19;;;;;;;5.23;3.10;;;;;;;;;;5123313;23;20483;-86
2023/03/28 09:52:45;;;;;;;3.50;2.13;;;;;;;;;;5146104;23;20480;-85
2023/03/28 09:55:23;;;;;;;7.60;5.27;;;;;;;;;;5139220;23;20924;-86
2023/03/28 09:58:04;;;;;;;1.90;1.90;;;;;;;;;;5206102;23;21247;-86
2023/03/28 10:00:39;;;;;;;4.93;3.23;;;;;;;;;;5062253;23;20543;-87
2023/03/28 10:03:09;;;;;;;3.37;2.70;;;;;;;;;;5027291;28;20437;-83
2023/03/28 10:05:42;;;;;;;29.13;12.40;;;;;;;;;;5068903;23;20446;-86
2023/03/28 10:08:21;;;;;;;4.33;1.87;;;;;;;;;;5100400;23;20588;-84
2023/03/28 10:10:58;;;;;;;2.87;2.40;;;;;;;;;;5035272;28;20423;-86
2023/03/28 10:13:25;;;;;;;2.30;2.10;;;;;;;;;;5033557;28;20477;-87
2023/03/28 10:15:56;;;;;;;1.93;1.83;;;;;;;;;;5051713;28;20403;-82
2023/03/28 10:18:26;;;;;;;13.00;8.87;;;;;;;;;;5210773;23;21633;-81
2023/03/28 10:20:52;;;;;;;4.53;2.70;;;;;;;;;;5043634;28;20539;-88
2023/03/28 10:23:20;;;;;;;2.53;2.40;;;;;;;;;;5025113;28;20512;-86
2023/03/28 10:25:50;;;;;;;2.10;1.90;;;;;;;;;;5042963;23;20482;-88
2023/03/28 10:28:23;;;;;;;3.13;2.87;;;;;;;;;;5081454;23;21092;-91
2023/03/28 10:30:56;;;;;;;3.20;3.00;;;;;;;;;;5041311;28;20848;-92
2023/03/28 10:33:27;;;;;;;4.93;3.13;;;;;;;;;;5079872;28;21105;-90
2023/03/28 10:35:55;;;;;;;10.60;3.17;;;;;;;;;;5069742;28;20522;-94
2023/03/28 10:38:22;;;;;;;4.33;3.13;;;;;;;;;;5051361;28;20448;-90
2023/03/28 10:40:59;;;;;;;4.07;3.17;;;;;;;;;;5067093;28;20475;-92
2023/03/28 10:43:43;;;;;;;7.53;3.17;;;;;;;;;;5064206;28;20463;-91
2023/03/28 10:46:14;;;;;;;3.37;3.00;;;;;;;;;;5068735;28;20437;-91
2023/03/28 10:48:45;;;;;;;2.83;2.60;;;;;;;;;;5063255;28;20565;-91
2023/03/28 10:51:22;;;;;;;2.27;2.10;;;;;;;;;;5071910;28;20441;-92
2023/03/28 10:53:55;;;;;;;2.90;2.80;;;;;;;;;;5069981;28;20483;-91
2023/03/28 10:56:21;;;;;;;4.63;2.70;;;;;;;;;;5093104;28;20509;-91
2023/03/28 10:58:50;;;;;;;3.60;2.17;;;;;;;;;;5068001;28;20444;-93
2023/03/28 11:01:19;;;;;;;2.67;2.47;;;;;;;;;;5059201;28;20422;-93
2023/03/28 11:04:04;;;;;;;4.73;2.07;;;;;;;;;;5069030;28;20484;-92
2023/03/28 11:06:40;;;;;;;2.10;1.90;;;;;;;;;;5062919;28;20485;-90
2023/03/28 11:09:24;;;;;;;4.87;2.70;;;;;;;;;;5058341;28;20909;-89
2023/03/28 11:12:10;;;;;;;2.17;2.03;;;;;;;;;;5071338;28;20455;-93
2023/03/28 11:14:45;;;;;;;2.20;1.70;;;;;;;;;;5039309;28;20498;-90
2023/03/28 11:17:26;;;;;;;6.00;2.00;;;;;;;;;;5071766;28;20423;-91
2023/03/28 11:20:02;;;;;;;4.23;2.03;;;;;;;;;;5070917;28;20809;-91
2023/03/28 11:22:46;;;;;;;1.63;1.50;;;;;;;;;;5056393;28;20451;-87
2023/03/28 11:25:39;;;;;;;1.77;1.60;;;;;;;;;;5083744;28;20541;-94
2023/03/28 11:28:10;;;;;;;1.90;1.80;;;;;;;;;;5033700;28;20481;-90
2023/03/28 11:30:36;;;;;;;0.90;0.90;;;;;;;;;;5063878;28;20609;-93
2023/03/28 11:33:25;;;;;;;2.20;1.43;;;;;;;;;;5070033;28;20432;-91
2023/03/28 11:36:14;;;;;;;1.93;1.93;;;;;;;;;;5047659;28;20522;-94
2023/03/28 11:38:51;;;;;;;1.73;1.73;;;;;;;;;;5073235;28;20480;-94
2023/03/28 11:41:17;;;;;;;1.70;1.60;;;;;;;;;;5017132;22;20487;-80
2023/03/28 11:43:56;;;;;;;1.40;1.30;;;;;;;;;;4966898;28;20454;-82
2023/03/28 11:46:27;;;;;;;1.10;1.10;;;;;;;;;;4972721;28;20479;-80
2023/03/28 11:49:13;;;;;;;1.00;1.00;;;;;;;;;;4967459;28;20464;-80
2023/03/28 11:51:48;;;;;;;3.80;1.50;;;;;;;;;;4939923;28;20476;-83
2023/03/28 11:54:28;;;;;;;0.93;0.93;;;;;;;;;;4966295;28;20797;-82
2023/03/28 11:56:56;;;;;;;2.43;1.60;;;;;;;;;;4957788;28;20456;-83
2023/03/28 11:59:24;;;;;;;1.73;0.93;;;;;;;;;;4970229;28;20505;-83
2023/03/28 12:01:55;;;;;;;1.50;1.43;;;;;;;;;;4976319;28;20842;-81
2023/03/28 12:04:27;;;;;;;2.43;2.07;;;;;;;;;;4965588;28;20418;-79
2023/03/28 12:07:09;;;;;;;1.43;1.43;;;;;;;;;;4974661;28;20452;-82
2023/03/28 12:09:47;;;;;;;3.50;1.97;;;;;;;;;;4973169;28;20484;-81
2023/03/28 12:12:17;;;;;;;3.27;1.07;;;;;;;;;;4958825;28;20485;-82
2023/03/28 12:15:05;;;;;;;1.53;1.43;;;;;;;;;;4964953;28;20429;-81
2023/03/28 12:17:31;;;;;;;2.13;1.50;;;;;;;;;;4968411;28;20439;-82
2023/03/28 12:19:57;;;;;;;1.93;1.83;;;;;;;;;;4966232;28;20841;-81
2023/03/28 12:22:29;;;;;;;1.13;1.13;;;;;;;;;;4962830;28;20413;-79
2023/03/28 12:25:04;;;;;;;2.40;2.27;;;;;;;;;;4971124;28;20425;-82
2023/03/28 12:27:42;;;;;;;1.47;1.37;;;;;;;;;;4972481;28;20468;-81
2023/03/28 12:30:12;;;;;;;1.20;1.00;;;;;;;;;;4967975;28;20500;-81
2023/03/28 12:32:41;;;;;;;0.90;0.90;;;;;;;;;;4964656;28;20416;-79
2023/03/28 12:35:16;;;;;;;1.20;1.20;;;;;;;;;;4962526;28;20524;-81
2023/03/28 12:37:51;;;;;;;1.93;1.57;;;;;;;;;;4966378;28;20722;-78
2023/03/28 12:40:26;;;;;;;1.50;1.50;;;;;;;;;;4963742;28;20459;-82
2023/03/28 12:42:53;;;;;;;1.10;1.10;;;;;;;;;;5007364;28;20487;-80
2023/03/28 12:45:22;;;;;;;2.63;1.37;;;;;;;;;;5003842;28;20431;-79
2023/03/28 12:47:50;;;;;;;2.10;2.00;;;;;;;;;;5004219;28;20504;-80
2023/03/28 12:50:19;;;;;;;3.03;1.33;;;;;;;;;;5006402;28;20479;-83
2023/03/28 12:52:46;;;;;;;1.40;1.30;;;;;;;;;;5007408;28;20447;-81
2023/03/28 12:55:23;;;;;;;1.83;1.73;;;;;;;;;;5004661;28;20431;-81
2023/03/28 12:57:50;;;;;;;1.00;1.00;;;;;;;;;;5006406;28;20447;-83
2023/03/28 13:00:25;;;;;;;1.60;1.43;;;;;;;;;;5003454;28;20440;-83
2023/03/28 13:03:05;;;;;;;1.43;1.33;;;;;;;;;;5005909;28;20436;-84
2023/03/28 13:05:50;;;;;;;2.90;2.70;;;;;;;;;;5006059;28;20440;-82
2023/03/28 13:08:22;;;;;;;1.07;1.07;;;;;;;;;;5010539;28;20517;-85
2023/03/28 13:11:22;;;;;;;2.00;1.80;;;;;;;;;;5005362;28;21115;-82
2023/03/28 13:14:06;;;;;;;1.10;1.00;;;;;;;;;;4956726;28;20443;-85
2023/03/28 13:16:46;;;;;;;1.67;1.67;;;;;;;;;;5007811;28;20437;-84
2023/03/28 13:19:13;;;;;;;3.60;1.37;;;;;;;;;;5005352;28;20415;-80
2023/03/28 13:21:44;;;;;;;1.00;1.00;;;;;;;;;;5007161;28;20432;-83
2023/03/28 13:24:29;;;;;;;4.47;1.87;;;;;;;;;;4989190;28;20424;-83
2023/03/28 13:26:55;;;;;;;1.57;1.57;;;;;;;;;;4996264;28;20420;-82
2023/03/28 13:29:23;;;;;;;2.30;2.10;;;;;;;;;;5009515;28;20894;-83
2023/03/28 13:31:49;;;;;;;1.70;1.20;;;;;;;;;;5009685;28;20443;-79
2023/03/28 13:34:22;;;;;;;2.77;1.40;;;;;;;;;;5019323;28;20480;-82
2023/03/28 13:36:55;;;;;;;1.20;1.20;;;;;;;;;;5022613;28;20529;-81
2023/03/28 13:39:23;;;;;;;1.00;1.00;;;;;;;;;;5028574;28;20400;-84
2023/03/28 13:41:50;;;;;;;3.40;2.00;;;;;;;;;;5014171;28;20470;-83
2023/03/28 13:44:16;;;;;;;2.20;1.50;;;;;;;;;;5012872;28;20503;-81
2023/03/28 13:46:42;;;;;;;1.00;1.00;;;;;;;;;;5005141;28;20875;-81
2023/03/28 13:49:20;;;;;;;1.97;1.87;;;;;;;;;;5007852;28;20471;-82
2023/03/28 13:51:48;;;;;;;1.37;1.27;;;;;;;;;;4990703;28;20788;-81
2023/03/28 13:54:14;;;;;;;1.83;1.73;;;;;;;;;;5003849;28;20527;-78
2023/03/28 13:56:43;;;;;;;1.07;1.07;;;;;;;;;;5000567;28;20920;-81
2023/03/28 13:59:23;;;;;;;1.43;1.40;;;;;;;;;;5001928;28;20511;-82
2023/03/28 14:01:52;;;;;;;1.07;1.07;;;;;;;;;;4998263;28;20440;-83
2023/03/28 14:04:23;;;;;;;2.80;1.50;;;;;;;;;;5000687;28;20425;-83
2023/03/28 14:06:51;;;;;;;2.77;1.90;;;;;;;;;;4998365;28;20503;-81
2023/03/28 14:09:21;;;;;;;1.67;1.67;;;;;;;;;;5006282;28;20467;-81
2023/03/28 14:11:49;;;;;;;1.20;1.20;;;;;;;;;;5004240;28;20463;-79
2023/03/28 14:14:18;;;;;;;2.13;1.97;;;;;;;;;;5007383;28;20972;-81
2023/03/28 14:16:45;;;;;;;1.47;1.47;;;;;;;;;;5004089;28;20442;-82
2023/03/28 14:19:18;;;;;;;1.20;1.20;;;;;;;;;;5007594;28;20407;-82
2023/03/28 14:21:45;;;;;;;1.57;1.47;;;;;;;;;;5000621;28;20431;-80
2023/03/28 14:24:15;;;;;;;1.70;1.60;;;;;;;;;;5003952;28;20404;-82
2023/03/28 14:26:45;;;;;;;1.60;1.57;;;;;;;;;;5000099;28;20435;-83
2023/03/28 14:29:11;;;;;;;2.77;1.60;;;;;;;;;;5006200;28;20578;-80
2023/03/28 14:31:44;;;;;;;1.70;1.60;;;;;;;;;;4999883;28;20509;-81
2023/03/28 14:34:22;;;;;;;1.57;1.57;;;;;;;;;;4998082;28;20456;-81
2023/03/28 14:36:57;;;;;;;5.60;2.03;;;;;;;;;;5002593;28;20445;-77
2023/03/28 14:39:23;;;;;;;1.80;1.57;;;;;;;;;;4999982;28;20539;-83
2023/03/28 14:41:49;;;;;;;2.63;1.43;;;;;;;;;;4999763;28;20462;-81
2023/03/28 14:44:15;;;;;;;1.90;1.53;;;;;;;;;;5006156;28;20458;-82
2023/03/28 14:46:42;;;;;;;1.53;1.20;;;;;;;;;;5012770;28;20451;-81
2023/03/28 14:49:14;;;;;;;2.00;1.70;;;;;;;;;;5015376;28;20834;-84
2023/03/28 14:51:45;;;;;;;2.43;1.90;;;;;;;;;;5012527;28;20521;-84
2023/03/28 14:54:13;;;;;;;1.80;1.80;;;;;;;;;;5013353;28;20902;-84
2023/03/28 14:56:39;;;;;;;2.00;1.97;;;;;;;;;;4996547;28;20843;-81
2023/03/28 14:59:06;;;;;;;2.00;1.90;;;;;;;;;;5014862;28;20810;-82
2023/03/28 15:01:33;;;;;;;2.33;2.13;;;;;;;;;;5013937;28;20428;-82